Crew | Aerofun Virtual



 METAR AND TAF INFORMATION
METAR FOR ESSB
ADDS - METARS form results

(0808 UTC 22 July 2019)
Data provider http://aviationweather.gov/metar/data/
 
METAR text: ESSB 220750Z 25005KT 8000 -RADZ BKN006 17/16 Q1013
Conditions at: ESSB (STOCKHOLM/BROMMA, SE) observed 0750 UTC 22 July 2019
Temperature: 17.0°C (63°F)
Dewpoint: 16.0°C (61°F) [RH = 94%]
Pressure (altimeter): 29.91 inches Hg (1013.0 mb)
Winds: from the WSW (250 degrees) at 6 MPH (5 knots; 2.6 m/s)
Visibility: 5 miles ( 8 km)
Ceiling: 600 feet AGL
Clouds: broken clouds at 600 feet AGL
Weather: -RA -DZ  (light rain, light drizzle)

METAR text: ESSB 220720Z 29003KT 9999 SCT007 BKN009 17/16 Q1013
Conditions at: ESSB (STOCKHOLM/BROMMA, SE) observed 0720 UTC 22 July 2019
Temperature: 17.0°C (63°F)
Dewpoint: 16.0°C (61°F) [RH = 94%]
Pressure (altimeter): 29.91 inches Hg (1013.0 mb)
Winds: from the WNW (290 degrees) at 3 MPH (3 knots; 1.5 m/s)
Visibility: 6 or more miles (10+ km)
Ceiling: 900 feet AGL
Clouds: scattered clouds at 700 feet AGL
broken clouds at 900 feet AGL
Weather: no significant weather observed at this time

Forecast for: ESSB (STOCKHOLM/BROMMA, SE)
Text: TAF ESSB 220530Z 2206/2215 27007KT 9999 FEW008 BKN015
Forecast period: 0600 to 1500 UTC 22 July 2019
Forecast type: FROM: standard forecast or significant change
Winds: from the W (270 degrees) at 8 MPH (7 knots; 3.6 m/s)
Visibility: 6 or more miles 10+ km)
Ceiling: 1500 feet AGL
Clouds: few clouds at 800 feet AGL
broken clouds at 1500 feet AGL
Weather: no significant weather forecast for this period
Text: TEMPO 2206/2209 BKN009
Forecast period: 0600 to 0900 UTC 22 July 2019
Forecast type: TEMPORARY: The following changes expected for less than half the time period
Visibility: missing
Ceiling: 900 feet AGL
Clouds: broken clouds at 900 feet AGL
Weather: no significant weather forecast for this period

 AIRPORT MAP

 RUNWAY INFORMATION
Runway 12 Runway length 5472 ft Runway width 148 ft
Runway elevation 46 ft Runway displaced threshold 0 ft Runway heading 125
Runway 30 Runway length 5472 ft Runway width 148 ft
Runway elevation 42 ft Runway displaced threshold 0 ft Runway heading 305

 AIRPORT FREQUENCIES
Type AFIS Name AFIS Frequency 119.4 MHZ
Type APP Name APP Frequency 120.15 MHZ
Type ATIS Name ATIS Frequency 122.45 MHZ
Type GND Name GND Frequency 121.6 MHZ
Type TWR Name TWR Frequency 118.1 MHZ

 AIRPORT NEAR NAVIGATION AIDS
Type NDB Name Nacka Frequency 335 KHZ
Type NDB Name Bromma Frequency 394 KHZ
Type NDB Name Bromma Frequency 322 KHZ